Streamwood, Illinois
Current Conditions -  °F | °C
As of 5:52 AM on Friday 31 Oct 2014 (Local Time) from KDPA Reporting Station
Overcast Overcast  
Wind Chill: 28°   Ceiling: 2800
Heat Index: 39°   Visibility: 10mi
Dew Point: 28°   Wind: 25mph
Humidity: 65%   Direction: 330°NNW
Pressure: 30.08"   Gusts: 36mph
Location:  42.01°N, 88.17°W
Report Text: KDPA 311052Z 33022G31KT 10SM BKN028 OVC070 04/M02 A3008 RMK AO2 PK WND 34034/1007 SLP191 T00391022
Loading
Personal Weather Stations






























Interactive Weather Map
Tropical Storm Tracking
New forecast layout! Learn more

10-Day Weather Forecast

Advertisements
Track Severe Weather on mobile